sensor_id;sensor_type;location;lat;lon;timestamp;pressure;altitude;pressure_sealevel;temperature;humidity
72226;BME280;60130;52.250;5.048;2022-07-10T00:00:00;1029.3;;;16.1;67.9
72226;BME280;60130;52.250;5.048;2022-07-10T00:05:00;1029.2;;;16.1;68.0
72226;BME280;60130;52.250;5.048;2022-07-10T00:10:00;1029.2;;;16.0;67.7
72226;BME280;60130;52.250;5.048;2022-07-10T00:15:00;1029.2;;;15.9;68.2
72226;BME280;60130;52.250;5.048;2022-07-10T00:20:00;1029.2;;;15.8;68.6
72226;BME280;60130;52.250;5.048;2022-07-10T00:25:00;1029.2;;;15.7;68.7
72226;BME280;60130;52.250;5.048;2022-07-10T00:30:00;1029.2;;;15.7;68.9
72226;BME280;60130;52.250;5.048;2022-07-10T00:35:00;1029.3;;;15.6;69.2
72226;BME280;60130;52.250;5.048;2022-07-10T00:40:00;1029.2;;;15.7;69.0
72226;BME280;60130;52.250;5.048;2022-07-10T00:45:00;1029.2;;;15.7;69.0
72226;BME280;60130;52.250;5.048;2022-07-10T00:50:00;1029.2;;;15.7;69.0
72226;BME280;60130;52.250;5.048;2022-07-10T00:55:00;1029.2;;;15.8;68.5
72226;BME280;60130;52.250;5.048;2022-07-10T01:00:00;1029.1;;;15.9;68.2
72226;BME280;60130;52.250;5.048;2022-07-10T01:05:00;1029.1;;;16.0;68.1
72226;BME280;60130;52.250;5.048;2022-07-10T01:10:00;1029.0;;;15.9;69.0
72226;BME280;60130;52.250;5.048;2022-07-10T01:15:00;1029.0;;;16.1;69.1
72226;BME280;60130;52.250;5.048;2022-07-10T01:20:03;1029.0;;;16.1;69.1
72226;BME280;60130;52.250;5.048;2022-07-10T01:25:00;1028.9;;;15.9;69.7
72226;BME280;60130;52.250;5.048;2022-07-10T01:30:00;1028.9;;;15.8;70.2
72226;BME280;60130;52.250;5.048;2022-07-10T01:35:00;1028.9;;;15.7;70.6
72226;BME280;60130;52.250;5.048;2022-07-10T01:40:00;1028.8;;;15.7;71.0
72226;BME280;60130;52.250;5.048;2022-07-10T01:45:00;1028.7;;;15.6;71.4
72226;BME280;60130;52.250;5.048;2022-07-10T01:50:00;1028.8;;;15.5;71.7
72226;BME280;60130;52.250;5.048;2022-07-10T01:55:00;1028.8;;;15.5;72.2
72226;BME280;60130;52.250;5.048;2022-07-10T02:00:00;1028.7;;;15.5;72.0
72226;BME280;60130;52.250;5.048;2022-07-10T02:05:00;1028.7;;;15.5;72.1
72226;BME280;60130;52.250;5.048;2022-07-10T02:10:00;1028.7;;;15.5;72.3
72226;BME280;60130;52.250;5.048;2022-07-10T02:15:00;1028.6;;;15.4;72.1
72226;BME280;60130;52.250;5.048;2022-07-10T02:20:00;1028.4;;;15.4;72.1
72226;BME280;60130;52.250;5.048;2022-07-10T02:25:00;1028.6;;;15.5;72.0
72226;BME280;60130;52.250;5.048;2022-07-10T02:30:00;1028.4;;;15.6;71.8
72226;BME280;60130;52.250;5.048;2022-07-10T02:35:00;1028.6;;;15.7;71.9
72226;BME280;60130;52.250;5.048;2022-07-10T02:40:00;1028.7;;;15.8;71.9
72226;BME280;60130;52.250;5.048;2022-07-10T02:45:00;1028.6;;;15.7;72.4
72226;BME280;60130;52.250;5.048;2022-07-10T02:50:00;1028.5;;;15.7;72.4
72226;BME280;60130;52.250;5.048;2022-07-10T02:55:00;1028.7;;;15.8;72.6
72226;BME280;60130;52.250;5.048;2022-07-10T03:00:00;1028.6;;;15.7;72.4
72226;BME280;60130;52.250;5.048;2022-07-10T03:05:00;1028.4;;;15.9;71.6
72226;BME280;60130;52.250;5.048;2022-07-10T03:10:00;1028.5;;;15.9;71.0
72226;BME280;60130;52.250;5.048;2022-07-10T03:15:00;1028.5;;;16.0;70.9
72226;BME280;60130;52.250;5.048;2022-07-10T03:20:00;1028.5;;;16.0;70.9
72226;BME280;60130;52.250;5.048;2022-07-10T03:25:00;1028.4;;;16.1;70.5
72226;BME280;60130;52.250;5.048;2022-07-10T03:30:00;1028.3;;;16.1;70.4
72226;BME280;60130;52.250;5.048;2022-07-10T03:35:00;1028.5;;;16.1;70.0
72226;BME280;60130;52.250;5.048;2022-07-10T03:40:00;1028.5;;;16.2;70.0
72226;BME280;60130;52.250;5.048;2022-07-10T03:45:00;1028.4;;;16.1;69.9
72226;BME280;60130;52.250;5.048;2022-07-10T03:50:00;1028.3;;;16.2;70.4
72226;BME280;60130;52.250;5.048;2022-07-10T03:55:00;1028.2;;;16.3;70.1
72226;BME280;60130;52.250;5.048;2022-07-10T04:00:00;1028.2;;;16.3;70.0
72226;BME280;60130;52.250;5.048;2022-07-10T04:05:00;1028.3;;;16.4;69.8
72226;BME280;60130;52.250;5.048;2022-07-10T04:10:00;1028.2;;;16.5;69.6
72226;BME280;60130;52.250;5.048;2022-07-10T04:15:00;1028.2;;;16.6;69.3
72226;BME280;60130;52.250;5.048;2022-07-10T04:20:00;1028.2;;;16.7;69.0
72226;BME280;60130;52.250;5.048;2022-07-10T04:25:00;1028.2;;;16.8;68.9
72226;BME280;60130;52.250;5.048;2022-07-10T04:30:00;1028.2;;;16.7;68.6
72226;BME280;60130;52.250;5.048;2022-07-10T04:35:00;1028.2;;;16.8;68.8
72226;BME280;60130;52.250;5.048;2022-07-10T04:40:00;1028.2;;;16.8;68.8
72226;BME280;60130;52.250;5.048;2022-07-10T04:45:00;1028.2;;;16.7;69.4
72226;BME280;60130;52.250;5.048;2022-07-10T04:50:00;1028.2;;;16.8;69.5
72226;BME280;60130;52.250;5.048;2022-07-10T04:55:00;1028.2;;;16.8;69.4
72226;BME280;60130;52.250;5.048;2022-07-10T05:00:00;1028.3;;;16.8;69.8
72226;BME280;60130;52.250;5.048;2022-07-10T05:05:00;1028.3;;;16.9;69.6
72226;BME280;60130;52.250;5.048;2022-07-10T05:10:00;1028.3;;;16.9;69.8
72226;BME280;60130;52.250;5.048;2022-07-10T05:15:00;1028.3;;;16.9;69.8
72226;BME280;60130;52.250;5.048;2022-07-10T05:20:00;1028.3;;;16.7;70.3
72226;BME280;60130;52.250;5.048;2022-07-10T05:25:00;1028.3;;;16.7;70.4
72226;BME280;60130;52.250;5.048;2022-07-10T05:30:00;1028.3;;;16.6;70.5
72226;BME280;60130;52.250;5.048;2022-07-10T05:35:00;1028.3;;;16.7;70.9
72226;BME280;60130;52.250;5.048;2022-07-10T05:40:00;1028.3;;;16.7;70.7
72226;BME280;60130;52.250;5.048;2022-07-10T05:45:00;1028.2;;;16.7;70.6
72226;BME280;60130;52.250;5.048;2022-07-10T05:50:00;1028.2;;;16.9;70.5
72226;BME280;60130;52.250;5.048;2022-07-10T05:55:00;1028.2;;;17.0;70.0
72226;BME280;60130;52.250;5.048;2022-07-10T06:00:00;1028.3;;;17.0;69.9
72226;BME280;60130;52.250;5.048;2022-07-10T06:05:00;1028.3;;;17.2;69.9
72226;BME280;60130;52.250;5.048;2022-07-10T06:10:00;1028.3;;;17.4;69.7
72226;BME280;60130;52.250;5.048;2022-07-10T06:15:00;1028.3;;;17.4;69.5
72226;BME280;60130;52.250;5.048;2022-07-10T06:20:00;1028.3;;;17.4;69.7
72226;BME280;60130;52.250;5.048;2022-07-10T06:25:01;1028.4;;;17.3;69.6
72226;BME280;60130;52.250;5.048;2022-07-10T06:30:00;1028.4;;;17.4;69.0
72226;BME280;60130;52.250;5.048;2022-07-10T06:35:00;1028.4;;;17.6;68.5
72226;BME280;60130;52.250;5.048;2022-07-10T06:40:00;1028.4;;;17.5;67.8
72226;BME280;60130;52.250;5.048;2022-07-10T06:45:00;1028.3;;;17.6;67.8
72226;BME280;60130;52.250;5.048;2022-07-10T06:50:00;1028.3;;;17.6;67.9
72226;BME280;60130;52.250;5.048;2022-07-10T06:55:00;1028.4;;;17.9;67.9
72226;BME280;60130;52.250;5.048;2022-07-10T07:00:00;1028.4;;;17.8;67.7
72226;BME280;60130;52.250;5.048;2022-07-10T07:05:00;1028.4;;;17.8;67.6
72226;BME280;60130;52.250;5.048;2022-07-10T07:10:00;1028.4;;;17.8;68.5
72226;BME280;60130;52.250;5.048;2022-07-10T07:15:00;1028.4;;;17.8;68.7
72226;BME280;60130;52.250;5.048;2022-07-10T07:20:01;1028.4;;;17.8;69.2
72226;BME280;60130;52.250;5.048;2022-07-10T07:25:00;1028.4;;;17.9;69.2
72226;BME280;60130;52.250;5.048;2022-07-10T07:30:02;1028.4;;;18.2;68.8
72226;BME280;60130;52.250;5.048;2022-07-10T07:35:00;1028.4;;;18.2;67.8
72226;BME280;60130;52.250;5.048;2022-07-10T07:40:00;1028.4;;;18.4;66.0
72226;BME280;60130;52.250;5.048;2022-07-10T07:45:00;1028.4;;;18.7;65.0
72226;BME280;60130;52.250;5.048;2022-07-10T07:50:01;1028.4;;;18.6;64.8
72226;BME280;60130;52.250;5.048;2022-07-10T07:55:00;1028.4;;;18.8;65.1
72226;BME280;60130;52.250;5.048;2022-07-10T08:00:00;1028.5;;;19.2;64.3
72226;BME280;60130;52.250;5.048;2022-07-10T08:05:00;1028.5;;;19.6;63.2
72226;BME280;60130;52.250;5.048;2022-07-10T08:10:00;1028.4;;;19.7;63.7
72226;BME280;60130;52.250;5.048;2022-07-10T08:15:00;1028.4;;;19.3;64.1
72226;BME280;60130;52.250;5.048;2022-07-10T08:20:00;1028.3;;;19.4;64.3
72226;BME280;60130;52.250;5.048;2022-07-10T08:25:00;1028.3;;;19.6;63.9
72226;BME280;60130;52.250;5.048;2022-07-10T08:30:00;1028.2;;;19.5;63.7
72226;BME280;60130;52.250;5.048;2022-07-10T08:35:00;1028.2;;;19.7;63.2
72226;BME280;60130;52.250;5.048;2022-07-10T08:40:00;1028.3;;;20.3;61.6
72226;BME280;60130;52.250;5.048;2022-07-10T08:45:00;1028.3;;;20.2;62.4
72226;BME280;60130;52.250;5.048;2022-07-10T08:50:00;1028.3;;;20.1;62.0
72226;BME280;60130;52.250;5.048;2022-07-10T08:55:00;1028.3;;;20.2;62.4
72226;BME280;60130;52.250;5.048;2022-07-10T09:00:00;1028.3;;;20.2;61.6
72226;BME280;60130;52.250;5.048;2022-07-10T09:05:00;1028.3;;;20.2;63.0
72226;BME280;60130;52.250;5.048;2022-07-10T09:10:05;1028.2;;;20.6;60.9
72226;BME280;60130;52.250;5.048;2022-07-10T09:15:14;1028.1;;;20.6;61.0
72226;BME280;60130;52.250;5.048;2022-07-10T09:20:00;1028.2;;;20.0;61.3
72226;BME280;60130;52.250;5.048;2022-07-10T09:25:11;1028.2;;;19.8;62.3
72226;BME280;60130;52.250;5.048;2022-07-10T09:30:00;1028.1;;;20.4;61.6
72226;BME280;60130;52.250;5.048;2022-07-10T09:35:01;1028.0;;;20.9;60.7
72226;BME280;60130;52.250;5.048;2022-07-10T09:40:01;1028.0;;;21.1;59.1
72226;BME280;60130;52.250;5.048;2022-07-10T09:45:18;1028.0;;;21.0;59.0
72226;BME280;60130;52.250;5.048;2022-07-10T09:50:00;1028.0;;;21.2;59.2
72226;BME280;60130;52.250;5.048;2022-07-10T09:55:01;1027.9;;;21.0;58.9
72226;BME280;60130;52.250;5.048;2022-07-10T10:00:00;1027.9;;;21.1;59.1
72226;BME280;60130;52.250;5.048;2022-07-10T10:05:00;1027.9;;;21.4;56.9
72226;BME280;60130;52.250;5.048;2022-07-10T10:10:01;1027.9;;;21.5;57.3
72226;BME280;60130;52.250;5.048;2022-07-10T10:15:00;1027.9;;;21.4;57.9
72226;BME280;60130;52.250;5.048;2022-07-10T10:20:01;1027.9;;;21.7;56.4
72226;BME280;60130;52.250;5.048;2022-07-10T10:25:01;1027.9;;;22.0;55.0
72226;BME280;60130;52.250;5.048;2022-07-10T10:30:01;1027.9;;;22.3;54.3
72226;BME280;60130;52.250;5.048;2022-07-10T10:35:00;1027.9;;;22.5;54.7
72226;BME280;60130;52.250;5.048;2022-07-10T10:40:00;1028.0;;;22.5;53.1
72226;BME280;60130;52.250;5.048;2022-07-10T10:50:00;1027.9;;;22.3;53.2
72226;BME280;60130;52.250;5.048;2022-07-10T10:55:02;1027.9;;;22.2;53.9
72226;BME280;60130;52.250;5.048;2022-07-10T11:00:00;1027.8;;;22.1;53.6
72226;BME280;60130;52.250;5.048;2022-07-10T11:15:00;1027.7;;;22.0;52.5
72226;BME280;60130;52.250;5.048;2022-07-10T11:20:01;1027.7;;;22.3;52.1
72226;BME280;60130;52.250;5.048;2022-07-10T11:25:03;1027.8;;;22.0;51.7
72226;BME280;60130;52.250;5.048;2022-07-10T11:30:00;1027.8;;;22.1;51.8
72226;BME280;60130;52.250;5.048;2022-07-10T11:35:00;1027.7;;;21.9;53.4
72226;BME280;60130;52.250;5.048;2022-07-10T11:40:07;1027.7;;;22.2;52.7
72226;BME280;60130;52.250;5.048;2022-07-10T11:50:00;1027.6;;;22.8;52.1
72226;BME280;60130;52.250;5.048;2022-07-10T11:55:13;1027.5;;;22.8;50.1
72226;BME280;60130;52.250;5.048;2022-07-10T12:00:00;1027.4;;;22.6;50.9
72226;BME280;60130;52.250;5.048;2022-07-10T12:05:00;1027.4;;;22.9;50.6
72226;BME280;60130;52.250;5.048;2022-07-10T12:10:00;1027.4;;;23.6;50.1
72226;BME280;60130;52.250;5.048;2022-07-10T12:15:00;1027.4;;;23.2;49.3
72226;BME280;60130;52.250;5.048;2022-07-10T12:20:00;1027.5;;;22.8;50.2
72226;BME280;60130;52.250;5.048;2022-07-10T12:25:02;1027.5;;;23.3;50.2
72226;BME280;60130;52.250;5.048;2022-07-10T12:30:00;1027.4;;;23.6;50.3
72226;BME280;60130;52.250;5.048;2022-07-10T12:35:00;1027.4;;;23.4;49.6
72226;BME280;60130;52.250;5.048;2022-07-10T12:40:00;1027.4;;;23.8;50.5
72226;BME280;60130;52.250;5.048;2022-07-10T12:45:09;1027.4;;;24.4;49.4
72226;BME280;60130;52.250;5.048;2022-07-10T12:50:03;1027.4;;;23.9;50.6
72226;BME280;60130;52.250;5.048;2022-07-10T12:55:09;1027.4;;;23.6;50.4
72226;BME280;60130;52.250;5.048;2022-07-10T13:00:04;1027.4;;;23.2;51.3
72226;BME280;60130;52.250;5.048;2022-07-10T13:05:00;1027.3;;;23.0;53.2
72226;BME280;60130;52.250;5.048;2022-07-10T13:10:00;1027.3;;;23.2;53.0
72226;BME280;60130;52.250;5.048;2022-07-10T13:15:00;1027.3;;;23.2;53.2
72226;BME280;60130;52.250;5.048;2022-07-10T13:20:00;1027.3;;;23.1;53.4
72226;BME280;60130;52.250;5.048;2022-07-10T13:25:00;1027.3;;;22.9;53.5
72226;BME280;60130;52.250;5.048;2022-07-10T13:30:00;1027.3;;;23.1;54.5
72226;BME280;60130;52.250;5.048;2022-07-10T13:35:00;1027.3;;;23.1;54.5
72226;BME280;60130;52.250;5.048;2022-07-10T13:40:00;1027.4;;;22.9;54.2
72226;BME280;60130;52.250;5.048;2022-07-10T13:45:00;1027.3;;;22.9;54.5
72226;BME280;60130;52.250;5.048;2022-07-10T13:50:00;1027.2;;;23.4;53.2
72226;BME280;60130;52.250;5.048;2022-07-10T13:55:00;1027.2;;;23.5;53.3
72226;BME280;60130;52.250;5.048;2022-07-10T14:00:00;1027.2;;;23.3;53.2
72226;BME280;60130;52.250;5.048;2022-07-10T14:05:00;1027.2;;;23.0;55.3
72226;BME280;60130;52.250;5.048;2022-07-10T14:10:00;1027.2;;;23.3;54.7
72226;BME280;60130;52.250;5.048;2022-07-10T14:15:00;1027.1;;;23.5;54.7
72226;BME280;60130;52.250;5.048;2022-07-10T14:20:00;1027.2;;;23.5;55.2
72226;BME280;60130;52.250;5.048;2022-07-10T14:25:00;1027.2;;;23.3;54.5
72226;BME280;60130;52.250;5.048;2022-07-10T14:30:00;1027.1;;;23.4;55.5
72226;BME280;60130;52.250;5.048;2022-07-10T14:35:00;1027.1;;;23.0;55.5
72226;BME280;60130;52.250;5.048;2022-07-10T14:40:00;1027.1;;;23.3;54.9
72226;BME280;60130;52.250;5.048;2022-07-10T14:45:00;1027.1;;;23.3;56.3
72226;BME280;60130;52.250;5.048;2022-07-10T14:50:00;1027.0;;;23.0;55.7
72226;BME280;60130;52.250;5.048;2022-07-10T14:55:00;1026.9;;;23.0;56.5
72226;BME280;60130;52.250;5.048;2022-07-10T15:00:00;1026.9;;;23.0;57.8
72226;BME280;60130;52.250;5.048;2022-07-10T15:05:00;1026.9;;;22.8;56.9
72226;BME280;60130;52.250;5.048;2022-07-10T15:10:00;1026.9;;;22.3;58.4
72226;BME280;60130;52.250;5.048;2022-07-10T15:15:00;1026.8;;;22.1;59.0
72226;BME280;60130;52.250;5.048;2022-07-10T15:20:00;1026.8;;;22.3;58.5
72226;BME280;60130;52.250;5.048;2022-07-10T15:25:00;1026.8;;;22.4;58.2
72226;BME280;60130;52.250;5.048;2022-07-10T15:30:00;1026.8;;;22.5;58.5
72226;BME280;60130;52.250;5.048;2022-07-10T15:35:00;1026.7;;;22.6;58.0
72226;BME280;60130;52.250;5.048;2022-07-10T15:40:00;1026.6;;;22.7;58.4
72226;BME280;60130;52.250;5.048;2022-07-10T15:45:00;1026.7;;;22.8;58.1
72226;BME280;60130;52.250;5.048;2022-07-10T15:50:00;1026.7;;;22.5;58.6
72226;BME280;60130;52.250;5.048;2022-07-10T15:55:00;1026.6;;;22.1;59.3
72226;BME280;60130;52.250;5.048;2022-07-10T16:00:00;1026.7;;;21.9;60.2
72226;BME280;60130;52.250;5.048;2022-07-10T16:05:00;1026.6;;;21.7;60.6
72226;BME280;60130;52.250;5.048;2022-07-10T16:10:00;1026.6;;;21.5;60.8
72226;BME280;60130;52.250;5.048;2022-07-10T16:15:00;1026.5;;;21.4;61.2
72226;BME280;60130;52.250;5.048;2022-07-10T16:20:00;1026.4;;;21.3;61.6
72226;BME280;60130;52.250;5.048;2022-07-10T16:25:00;1026.4;;;21.1;62.7
72226;BME280;60130;52.250;5.048;2022-07-10T16:30:00;1026.5;;;21.0;63.2
72226;BME280;60130;52.250;5.048;2022-07-10T16:35:00;1026.5;;;21.0;63.8
72226;BME280;60130;52.250;5.048;2022-07-10T16:40:00;1026.4;;;20.9;64.0
72226;BME280;60130;52.250;5.048;2022-07-10T16:45:00;1026.3;;;21.0;63.8
72226;BME280;60130;52.250;5.048;2022-07-10T16:50:00;1026.2;;;21.1;63.7
72226;BME280;60130;52.250;5.048;2022-07-10T16:55:00;1026.3;;;21.6;62.9
72226;BME280;60130;52.250;5.048;2022-07-10T17:00:00;1026.2;;;22.0;61.3
72226;BME280;60130;52.250;5.048;2022-07-10T17:05:00;1026.2;;;22.0;60.3
72226;BME280;60130;52.250;5.048;2022-07-10T17:10:00;1026.2;;;22.7;59.1
72226;BME280;60130;52.250;5.048;2022-07-10T17:15:00;1026.1;;;22.8;58.3
72226;BME280;60130;52.250;5.048;2022-07-10T17:20:00;1026.2;;;22.9;57.9
72226;BME280;60130;52.250;5.048;2022-07-10T17:25:00;1026.1;;;23.4;57.1
72226;BME280;60130;52.250;5.048;2022-07-10T17:30:00;1026.2;;;23.5;55.6
72226;BME280;60130;52.250;5.048;2022-07-10T17:35:00;1026.1;;;23.3;56.6
72226;BME280;60130;52.250;5.048;2022-07-10T17:40:00;1026.1;;;23.6;56.1
72226;BME280;60130;52.250;5.048;2022-07-10T17:45:00;1026.1;;;24.1;55.0
72226;BME280;60130;52.250;5.048;2022-07-10T17:50:00;1026.0;;;24.0;55.3
72226;BME280;60130;52.250;5.048;2022-07-10T17:55:00;1025.9;;;22.5;58.6
72226;BME280;60130;52.250;5.048;2022-07-10T18:00:00;1025.9;;;21.3;62.2
72226;BME280;60130;52.250;5.048;2022-07-10T18:05:00;1025.8;;;21.1;62.8
72226;BME280;60130;52.250;5.048;2022-07-10T18:10:00;1025.8;;;20.9;63.8
72226;BME280;60130;52.250;5.048;2022-07-10T18:15:00;1025.8;;;20.7;64.9
72226;BME280;60130;52.250;5.048;2022-07-10T18:20:00;1025.8;;;20.6;65.5
72226;BME280;60130;52.250;5.048;2022-07-10T18:25:00;1025.8;;;20.6;65.7
72226;BME280;60130;52.250;5.048;2022-07-10T18:30:00;1025.8;;;20.5;66.6
72226;BME280;60130;52.250;5.048;2022-07-10T18:35:00;1025.8;;;21.0;65.7
72226;BME280;60130;52.250;5.048;2022-07-10T18:40:00;1025.8;;;22.6;61.5
72226;BME280;60130;52.250;5.048;2022-07-10T18:45:00;1025.8;;;22.5;60.8
72226;BME280;60130;52.250;5.048;2022-07-10T18:50:00;1025.8;;;22.7;60.4
72226;BME280;60130;52.250;5.048;2022-07-10T18:55:00;1025.8;;;23.2;58.3
72226;BME280;60130;52.250;5.048;2022-07-10T19:00:00;1025.9;;;22.7;59.3
72226;BME280;60130;52.250;5.048;2022-07-10T19:05:00;1025.9;;;21.9;61.4
72226;BME280;60130;52.250;5.048;2022-07-10T19:10:00;1026.0;;;20.8;65.3
72226;BME280;60130;52.250;5.048;2022-07-10T19:15:00;1026.0;;;20.2;67.4
72226;BME280;60130;52.250;5.048;2022-07-10T19:20:00;1026.1;;;20.5;67.2
72226;BME280;60130;52.250;5.048;2022-07-10T19:25:00;1026.1;;;20.5;67.0
72226;BME280;60130;52.250;5.048;2022-07-10T19:30:00;1026.1;;;20.1;68.6
72226;BME280;60130;52.250;5.048;2022-07-10T19:35:00;1026.1;;;19.8;69.4
72226;BME280;60130;52.250;5.048;2022-07-10T19:40:00;1026.1;;;19.7;69.9
72226;BME280;60130;52.250;5.048;2022-07-10T19:45:00;1026.0;;;19.6;70.5
72226;BME280;60130;52.250;5.048;2022-07-10T19:50:00;1026.0;;;19.5;70.7
72226;BME280;60130;52.250;5.048;2022-07-10T19:55:00;1026.0;;;19.3;71.8
72226;BME280;60130;52.250;5.048;2022-07-10T20:00:00;1026.0;;;19.1;72.6
72226;BME280;60130;52.250;5.048;2022-07-10T20:05:00;1026.1;;;19.0;72.9
72226;BME280;60130;52.250;5.048;2022-07-10T20:10:00;1026.1;;;19.0;73.2
72226;BME280;60130;52.250;5.048;2022-07-10T20:15:00;1026.1;;;18.9;73.4
72226;BME280;60130;52.250;5.048;2022-07-10T20:20:00;1026.1;;;18.9;73.5
72226;BME280;60130;52.250;5.048;2022-07-10T20:25:00;1026.1;;;18.7;74.3
72226;BME280;60130;52.250;5.048;2022-07-10T20:30:00;1026.2;;;18.7;74.3
72226;BME280;60130;52.250;5.048;2022-07-10T20:35:00;1026.2;;;18.5;74.7
72226;BME280;60130;52.250;5.048;2022-07-10T20:40:00;1026.2;;;18.3;75.2
72226;BME280;60130;52.250;5.048;2022-07-10T20:45:00;1026.3;;;18.4;75.3
72226;BME280;60130;52.250;5.048;2022-07-10T20:50:00;1026.2;;;18.3;75.3
72226;BME280;60130;52.250;5.048;2022-07-10T20:55:01;1026.2;;;18.3;75.2
72226;BME280;60130;52.250;5.048;2022-07-10T21:00:00;1026.3;;;18.2;75.5
72226;BME280;60130;52.250;5.048;2022-07-10T21:05:00;1026.3;;;18.2;75.6
72226;BME280;60130;52.250;5.048;2022-07-10T21:10:00;1026.3;;;18.1;76.2
72226;BME280;60130;52.250;5.048;2022-07-10T21:15:00;1026.3;;;18.0;76.6
72226;BME280;60130;52.250;5.048;2022-07-10T21:20:00;1026.3;;;17.9;76.7
72226;BME280;60130;52.250;5.048;2022-07-10T21:25:00;1026.4;;;17.8;76.5
72226;BME280;60130;52.250;5.048;2022-07-10T21:30:00;1026.4;;;17.8;76.1
72226;BME280;60130;52.250;5.048;2022-07-10T21:35:00;1026.4;;;17.8;76.2
72226;BME280;60130;52.250;5.048;2022-07-10T21:40:00;1026.4;;;17.8;76.0
72226;BME280;60130;52.250;5.048;2022-07-10T21:45:00;1026.4;;;17.8;76.6
72226;BME280;60130;52.250;5.048;2022-07-10T21:50:00;1026.4;;;17.8;76.7
72226;BME280;60130;52.250;5.048;2022-07-10T21:55:00;1026.4;;;17.7;77.0
72226;BME280;60130;52.250;5.048;2022-07-10T22:00:00;1026.5;;;17.7;77.4
72226;BME280;60130;52.250;5.048;2022-07-10T22:05:00;1026.5;;;17.7;77.7
72226;BME280;60130;52.250;5.048;2022-07-10T22:10:00;1026.5;;;17.7;78.0
72226;BME280;60130;52.250;5.048;2022-07-10T22:15:00;1026.4;;;17.7;78.1
72226;BME280;60130;52.250;5.048;2022-07-10T22:20:00;1026.4;;;17.8;77.9
72226;BME280;60130;52.250;5.048;2022-07-10T22:25:00;1026.4;;;17.9;77.3
72226;BME280;60130;52.250;5.048;2022-07-10T22:30:00;1026.3;;;18.0;77.1
72226;BME280;60130;52.250;5.048;2022-07-10T22:35:00;1026.4;;;17.9;77.3
72226;BME280;60130;52.250;5.048;2022-07-10T22:40:00;1026.3;;;18.0;76.9
72226;BME280;60130;52.250;5.048;2022-07-10T22:45:00;1026.3;;;18.0;76.6
72226;BME280;60130;52.250;5.048;2022-07-10T22:50:00;1026.3;;;17.9;76.8
72226;BME280;60130;52.250;5.048;2022-07-10T22:55:00;1026.3;;;17.9;76.8
72226;BME280;60130;52.250;5.048;2022-07-10T23:00:01;1026.2;;;17.9;76.6
72226;BME280;60130;52.250;5.048;2022-07-10T23:05:00;1026.2;;;18.0;76.3
72226;BME280;60130;52.250;5.048;2022-07-10T23:10:00;1026.1;;;18.0;76.4
72226;BME280;60130;52.250;5.048;2022-07-10T23:15:00;1026.1;;;18.0;76.9
72226;BME280;60130;52.250;5.048;2022-07-10T23:20:00;1026.1;;;17.9;76.9
72226;BME280;60130;52.250;5.048;2022-07-10T23:25:01;1026.1;;;18.0;76.8
72226;BME280;60130;52.250;5.048;2022-07-10T23:30:00;1026.0;;;18.1;76.6
72226;BME280;60130;52.250;5.048;2022-07-10T23:35:00;1026.0;;;18.0;76.7
72226;BME280;60130;52.250;5.048;2022-07-10T23:40:00;1025.9;;;18.1;76.6
72226;BME280;60130;52.250;5.048;2022-07-10T23:45:00;1025.9;;;18.1;76.8
72226;BME280;60130;52.250;5.048;2022-07-10T23:50:00;1025.9;;;18.0;76.6
72226;BME280;60130;52.250;5.048;2022-07-10T23:55:00;1025.9;;;18.0;76.9
